Wetterdaten: aktuell Montag, 27.09.2021 21:50
Datum Zeit Temp. Dach 2 mtr. Höhe Boden Feuchte ISS Feuchte 2mtr Luftdruck Regen Wind Richtung Richtung Sonnenschein T Regen ET Solar Taupunkt Windchill Windböen Empfang
27.09.2021 21:50 14,4 °C 14,4 °C 13,9 °C 91 % 88 % 1017,7 hPa 4,8 l/m² 18,1 km/h (3 Bft) W 267 ° 0 min 40 min 0,001 mm 0 W/m² 12,4 °C 14,4 °C 25,7 km/h (4 Bft) 97,50 %
27.09.2021 20:50 17,1 °C 17,8 °C 16,1 °C 89 % 84 % 1016,2 hPa 0,2 l/m² 15,6 km/h (3 Bft) W-SW 257 ° 0 min 5 min 0,050 mm 0 W/m² 15,1 °C 17,1 °C 25,7 km/h (4 Bft) 97,48 %
27.09.2021 19:50 19,4 °C 19,4 °C 17,2 °C 76 % 74 % 1015,3 hPa 0,0 l/m² 10,7 km/h (2 Bft) S-SW 194 ° 0 min 0 min 0,051 mm 0 W/m² 14,6 °C 19,4 °C 20,9 km/h (4 Bft) 99,16 %
27.09.2021 18:50 19,9 °C 20,0 °C 17,8 °C 74 % 73 % 1014,8 hPa 0,0 l/m² 13,5 km/h (3 Bft) S-SO 167 ° 0 min 0 min 0,076 mm 20 W/m² 15,0 °C 19,9 °C 25,7 km/h (4 Bft) 97,50 %
27.09.2021 17:50 20,6 °C 20,6 °C 18,9 °C 71 % 70 % 1014,3 hPa 0,0 l/m² 12,4 km/h (3 Bft) SW 227 ° 0 min 0 min 0,127 mm 31 W/m² 14,9 °C 20,6 °C 24,1 km/h (4 Bft) 97,54 %
27.09.2021 16:50 21,1 °C 21,1 °C 19,4 °C 70 % 68 % 1014,3 hPa 0,0 l/m² 12,6 km/h (3 Bft) S-SW 213 ° 0 min 0 min 0,001 mm 46 W/m² 15,0 °C 21,1 °C 27,4 km/h (4 Bft) 99,17 %
27.09.2021 15:50 21,3 °C 21,1 °C 20,6 °C 69 % 68 % 1014,0 hPa 0,0 l/m² 16,3 km/h (3 Bft) S 171 ° 0 min 0 min 0,279 mm 203 W/m² 15,0 °C 21,3 °C 29,0 km/h (5 Bft) 99,17 %
27.09.2021 14:50 21,2 °C 21,1 °C 20,0 °C 70 % 68 % 1014,1 hPa 0,0 l/m² 19,6 km/h (3 Bft) S-SO 167 ° 30 min 0 min 0,381 mm 256 W/m² 15,0 °C 21,2 °C 37,0 km/h (5 Bft) 94,96 %
27.09.2021 13:50 21,4 °C 21,7 °C 20,6 °C 70 % 69 % 1014,6 hPa 0,0 l/m² 11,0 km/h (2 Bft) S 180 ° 40 min 0 min 0,279 mm 456 W/m² 15,8 °C 21,4 °C 25,7 km/h (4 Bft) 100,00 %
27.09.2021 12:50 20,4 °C 20,6 °C 19,4 °C 74 % 73 % 1014,7 hPa 0,0 l/m² 11,8 km/h (2 Bft) O-SO 107 ° 40 min 0 min 0,229 mm 407 W/m² 15,6 °C 20,4 °C 24,1 km/h (4 Bft) 99,16 %
27.09.2021 11:50 19,3 °C 19,4 °C 18,3 °C 78 % 77 % 1015,0 hPa 0,0 l/m² 13,3 km/h (3 Bft) S 177 ° 45 min 0 min 0,203 mm 353 W/m² 15,3 °C 19,3 °C 24,1 km/h (4 Bft) 97,60 %
27.09.2021 10:50 18,7 °C 18,3 °C 17,2 °C 81 % 81 % 1015,1 hPa 0,0 l/m² 13,4 km/h (3 Bft) S 191 ° 60 min 0 min 0,127 mm 285 W/m² 15,0 °C 18,7 °C 24,1 km/h (4 Bft) 98,18 %
27.09.2021 09:50 17,7 °C 17,2 °C 16,1 °C 86 % 86 % 1015,2 hPa 0,0 l/m² 10,8 km/h (2 Bft) SO 141 ° 40 min 0 min 0,051 mm 256 W/m² 14,8 °C 17,7 °C 19,3 km/h (3 Bft) 100,00 %
27.09.2021 08:50 16,7 °C 15,6 °C 15,6 °C 90 % 92 % 1015,3 hPa 0,0 l/m² 11,0 km/h (2 Bft) S-SO 153 ° 0 min 0 min 0,000 mm 119 W/m² 14,3 °C 16,7 °C 14,5 km/h (3 Bft) 97,50 %
27.09.2021 07:50 16,4 °C 14,4 °C 16,1 °C 91 % 89 % 1015,5 hPa 0,0 l/m² 13,6 km/h (3 Bft) S-SO 155 ° 0 min 0 min 0,000 mm 15 W/m² 12,6 °C 16,4 °C 16,1 km/h (3 Bft) 100,00 %
27.09.2021 06:50 16,8 °C 16,1 °C 16,1 °C 91 % 90 % 1015,5 hPa 0,0 l/m² 4,5 km/h (1 Bft) S 191 ° 0 min 0 min 0,000 mm 0 W/m² 14,5 °C 16,8 °C 8,0 km/h (2 Bft) 100,00 %
27.09.2021 05:50 17,3 °C 16,7 °C 16,1 °C 91 % 91 % 1015,8 hPa 0,0 l/m² 5,4 km/h (1 Bft) SW 230 ° 0 min 0 min 0,000 mm 0 W/m² 15,2 °C 17,3 °C 11,3 km/h (2 Bft) 97,50 %
27.09.2021 04:50 17,5 °C 16,7 °C 16,1 °C 91 % 92 % 1016,1 hPa 0,0 l/m² 6,7 km/h (2 Bft) S-SW 209 ° 0 min 0 min 0,000 mm 0 W/m² 15,4 °C 17,5 °C 12,9 km/h (3 Bft) 99,16 %
27.09.2021 03:50 17,4 °C 16,1 °C 16,1 °C 93 % 92 % 1016,1 hPa 0,0 l/m² 3,9 km/h (1 Bft) S-SW 211 ° 0 min 0 min 0,000 mm 0 W/m² 14,8 °C 17,4 °C 6,4 km/h (2 Bft) 100,00 %
27.09.2021 02:50 17,6 °C 16,7 °C 17,2 °C 93 % 92 % 1016,4 hPa 0,0 l/m² 5,2 km/h (1 Bft) S 184 ° 0 min 0 min 0,000 mm 0 W/m² 15,4 °C 17,6 °C 8,0 km/h (2 Bft) 97,56 %
27.09.2021 01:50 17,9 °C 16,7 °C 17,2 °C 92 % 91 % 1016,3 hPa 0,0 l/m² 8,3 km/h (2 Bft) S 169 ° 0 min 0 min 0,000 mm 0 W/m² 15,2 °C 17,9 °C 12,9 km/h (3 Bft) 100,00 %
27.09.2021 00:50 18,0 °C 16,7 °C 17,2 °C 92 % 91 % 1016,1 hPa 0,0 l/m² 6,0 km/h (2 Bft) S-SO 161 ° 0 min 0 min 0,000 mm 0 W/m² 15,2 °C 18,0 °C 8,0 km/h (2 Bft) 100,00 %
26.09.2021 23:50 18,3 °C 17,2 °C 17,2 °C 90 % 90 % 1016,3 hPa 0,0 l/m² 7,8 km/h (2 Bft) S-SO 167 ° 0 min 0 min 0,000 mm 0 W/m² 15,5 °C 18,3 °C 12,9 km/h (3 Bft) 97,20 %
26.09.2021 22:50 19,0 °C 17,8 °C 17,2 °C 85 % 89 % 1016,1 hPa 0,0 l/m² 4,2 km/h (1 Bft) S 191 ° 0 min 0 min 0,000 mm 0 W/m² 16,0 °C 19,0 °C 6,4 km/h (2 Bft) 100,00 %
26.09.2021 22:00 19,3 °C 18,3 °C 17,2 °C 84 % 88 % 1016,5 hPa 0,0 l/m² 2,8 km/h (1 Bft) SW 233 ° 0 min 0 min 0,000 mm 0 W/m² 16,3 °C 19,3 °C 4,8 km/h (1 Bft) 100,00 %
_ Min-Zeit 21:30 07:50 21:40 14:00 14:20 15:50 - 06:30 - - - - - - 21:45 21:30 22:00 17:40
Minimum _ 14,3 °C 14,4 °C 13,9 °C 68 % 67 % 1014,0 hPa - 2,6 km/h (1 Bft) - - - - - - 12,4 °C 14,3 °C 4,8 km/h (1 Bft) 94,12 %
_ Max-Zeit 14:15 13:40 13:45 02:20 04:10 21:50 21:15 14:30 - - 08:55 20:30 14:05 13:55 22:00 14:15 21:15 22:00
Maximum _ 21,6 °C 21,7 °C 20,6 °C 93 % 93 % 1017,7 hPa 1,6 l/m² 23,2 km/h
S-SO (4 Bft)
- - 5 min 5 min 0,381 mm 624 W/m² 16,3 °C 21,6 °C 45,1 km/h
W (6 Bft)
100,00 %
Durchschnitt _ 18,7 °C 18,2 °C 17,4 °C 83 % 83 % 1015,5 hPa #5,0 l/m² 10,3 km/h (2 Bft) S - #4:15 h #45 min. #2,083 mm 111 W/m² 15,1 °C 18,7 °C 17,8 km/h (3 Bft) 98,61 %